sensor_id;sensor_type;location;lat;lon;timestamp;P1;durP1;ratioP1;P2;durP2;ratioP2
7729;SDS011;3908;52.310;7.230;2023-05-10T00:00:12;6.77;;;5.57;;
7729;SDS011;3908;52.310;7.230;2023-05-10T00:02:59;8.80;;;5.80;;
7729;SDS011;3908;52.310;7.230;2023-05-10T00:05:46;9.17;;;5.93;;
7729;SDS011;3908;52.310;7.230;2023-05-10T00:08:34;8.10;;;6.30;;
7729;SDS011;3908;52.310;7.230;2023-05-10T00:11:20;8.00;;;5.77;;
7729;SDS011;3908;52.310;7.230;2023-05-10T00:14:07;7.10;;;6.00;;
7729;SDS011;3908;52.310;7.230;2023-05-10T00:16:54;8.80;;;6.40;;
7729;SDS011;3908;52.310;7.230;2023-05-10T00:19:41;10.83;;;7.63;;
7729;SDS011;3908;52.310;7.230;2023-05-10T00:22:27;9.77;;;7.10;;
7729;SDS011;3908;52.310;7.230;2023-05-10T00:25:16;9.00;;;6.50;;
7729;SDS011;3908;52.310;7.230;2023-05-10T00:28:02;9.37;;;7.00;;
7729;SDS011;3908;52.310;7.230;2023-05-10T00:30:49;10.57;;;7.23;;
7729;SDS011;3908;52.310;7.230;2023-05-10T00:33:36;9.50;;;7.20;;
7729;SDS011;3908;52.310;7.230;2023-05-10T00:36:23;9.40;;;6.77;;
7729;SDS011;3908;52.310;7.230;2023-05-10T00:39:09;8.43;;;6.20;;
7729;SDS011;3908;52.310;7.230;2023-05-10T00:41:57;7.37;;;5.97;;
7729;SDS011;3908;52.310;7.230;2023-05-10T00:44:45;8.60;;;6.13;;
7729;SDS011;3908;52.310;7.230;2023-05-10T00:47:32;7.93;;;5.40;;
7729;SDS011;3908;52.310;7.230;2023-05-10T00:50:19;7.17;;;5.37;;
7729;SDS011;3908;52.310;7.230;2023-05-10T00:53:05;7.23;;;5.23;;
7729;SDS011;3908;52.310;7.230;2023-05-10T00:55:52;6.30;;;3.87;;
7729;SDS011;3908;52.310;7.230;2023-05-10T00:58:41;4.30;;;3.70;;
7729;SDS011;3908;52.310;7.230;2023-05-10T01:01:28;4.63;;;3.40;;
7729;SDS011;3908;52.310;7.230;2023-05-10T01:04:15;6.40;;;4.23;;
7729;SDS011;3908;52.310;7.230;2023-05-10T01:07:01;4.70;;;3.90;;
7729;SDS011;3908;52.310;7.230;2023-05-10T01:09:48;6.80;;;4.60;;
7729;SDS011;3908;52.310;7.230;2023-05-10T01:12:35;5.93;;;4.63;;
7729;SDS011;3908;52.310;7.230;2023-05-10T01:15:24;5.47;;;4.43;;
7729;SDS011;3908;52.310;7.230;2023-05-10T01:18:11;7.97;;;5.00;;
7729;SDS011;3908;52.310;7.230;2023-05-10T01:21:00;7.17;;;5.43;;
7729;SDS011;3908;52.310;7.230;2023-05-10T01:24:02;6.47;;;5.33;;
7729;SDS011;3908;52.310;7.230;2023-05-10T01:27:10;8.57;;;6.33;;
7729;SDS011;3908;52.310;7.230;2023-05-10T01:33:19;7.40;;;5.53;;
7729;SDS011;3908;52.310;7.230;2023-05-10T01:36:13;7.73;;;5.33;;
7729;SDS011;3908;52.310;7.230;2023-05-10T01:39:02;9.37;;;6.90;;
7729;SDS011;3908;52.310;7.230;2023-05-10T01:41:52;9.70;;;6.60;;
7729;SDS011;3908;52.310;7.230;2023-05-10T01:44:42;10.57;;;7.13;;
7729;SDS011;3908;52.310;7.230;2023-05-10T01:47:33;11.77;;;7.67;;
7729;SDS011;3908;52.310;7.230;2023-05-10T01:50:24;10.67;;;7.80;;
7729;SDS011;3908;52.310;7.230;2023-05-10T01:53:14;9.80;;;7.33;;
7729;SDS011;3908;52.310;7.230;2023-05-10T01:56:01;10.37;;;8.00;;
7729;SDS011;3908;52.310;7.230;2023-05-10T01:58:48;9.40;;;6.87;;
7729;SDS011;3908;52.310;7.230;2023-05-10T02:01:36;10.10;;;7.80;;
7729;SDS011;3908;52.310;7.230;2023-05-10T02:04:24;10.83;;;7.73;;
7729;SDS011;3908;52.310;7.230;2023-05-10T02:07:12;10.33;;;7.53;;
7729;SDS011;3908;52.310;7.230;2023-05-10T02:09:59;10.27;;;7.67;;
7729;SDS011;3908;52.310;7.230;2023-05-10T02:12:47;10.40;;;6.73;;
7729;SDS011;3908;52.310;7.230;2023-05-10T02:15:34;9.70;;;7.17;;
7729;SDS011;3908;52.310;7.230;2023-05-10T02:18:23;13.60;;;7.23;;
7729;SDS011;3908;52.310;7.230;2023-05-10T02:21:10;10.57;;;7.33;;
7729;SDS011;3908;52.310;7.230;2023-05-10T02:23:59;10.93;;;7.57;;
7729;SDS011;3908;52.310;7.230;2023-05-10T02:26:45;9.63;;;7.27;;
7729;SDS011;3908;52.310;7.230;2023-05-10T02:29:34;9.63;;;7.50;;
7729;SDS011;3908;52.310;7.230;2023-05-10T02:32:22;9.97;;;6.87;;
7729;SDS011;3908;52.310;7.230;2023-05-10T02:35:09;10.43;;;6.93;;
7729;SDS011;3908;52.310;7.230;2023-05-10T02:37:56;9.20;;;7.07;;
7729;SDS011;3908;52.310;7.230;2023-05-10T02:40:45;9.17;;;6.80;;
7729;SDS011;3908;52.310;7.230;2023-05-10T02:43:33;10.40;;;6.70;;
7729;SDS011;3908;52.310;7.230;2023-05-10T02:46:20;10.03;;;6.77;;
7729;SDS011;3908;52.310;7.230;2023-05-10T02:49:07;11.27;;;7.90;;
7729;SDS011;3908;52.310;7.230;2023-05-10T02:51:56;10.07;;;7.30;;
7729;SDS011;3908;52.310;7.230;2023-05-10T02:54:45;11.13;;;7.50;;
7729;SDS011;3908;52.310;7.230;2023-05-10T02:57:38;9.87;;;7.33;;
7729;SDS011;3908;52.310;7.230;2023-05-10T03:00:25;10.43;;;7.60;;
7729;SDS011;3908;52.310;7.230;2023-05-10T03:03:12;10.50;;;7.60;;
7729;SDS011;3908;52.310;7.230;2023-05-10T03:05:59;13.93;;;7.80;;
7729;SDS011;3908;52.310;7.230;2023-05-10T03:08:46;10.40;;;7.43;;
7729;SDS011;3908;52.310;7.230;2023-05-10T03:11:36;11.90;;;7.97;;
7729;SDS011;3908;52.310;7.230;2023-05-10T03:14:31;9.47;;;6.67;;
7729;SDS011;3908;52.310;7.230;2023-05-10T03:17:22;9.50;;;6.90;;
7729;SDS011;3908;52.310;7.230;2023-05-10T03:20:10;10.83;;;7.33;;
7729;SDS011;3908;52.310;7.230;2023-05-10T03:22:59;10.43;;;7.33;;
7729;SDS011;3908;52.310;7.230;2023-05-10T03:25:48;12.63;;;8.67;;
7729;SDS011;3908;52.310;7.230;2023-05-10T03:28:35;10.77;;;8.10;;
7729;SDS011;3908;52.310;7.230;2023-05-10T03:31:24;12.03;;;8.47;;
7729;SDS011;3908;52.310;7.230;2023-05-10T03:34:11;13.53;;;8.60;;
7729;SDS011;3908;52.310;7.230;2023-05-10T03:36:57;12.47;;;8.30;;
7729;SDS011;3908;52.310;7.230;2023-05-10T03:39:44;13.23;;;8.80;;
7729;SDS011;3908;52.310;7.230;2023-05-10T03:42:31;14.37;;;8.03;;
7729;SDS011;3908;52.310;7.230;2023-05-10T03:45:18;12.37;;;8.60;;
7729;SDS011;3908;52.310;7.230;2023-05-10T03:48:06;18.20;;;10.33;;
7729;SDS011;3908;52.310;7.230;2023-05-10T03:50:53;14.67;;;9.83;;
7729;SDS011;3908;52.310;7.230;2023-05-10T03:53:39;19.13;;;10.90;;
7729;SDS011;3908;52.310;7.230;2023-05-10T03:56:26;16.00;;;10.03;;
7729;SDS011;3908;52.310;7.230;2023-05-10T03:59:13;16.10;;;10.40;;
7729;SDS011;3908;52.310;7.230;2023-05-10T04:02:00;15.53;;;10.73;;
7729;SDS011;3908;52.310;7.230;2023-05-10T04:04:48;15.13;;;9.90;;
7729;SDS011;3908;52.310;7.230;2023-05-10T04:07:36;11.07;;;7.87;;
7729;SDS011;3908;52.310;7.230;2023-05-10T04:10:22;13.87;;;8.90;;
7729;SDS011;3908;52.310;7.230;2023-05-10T04:13:09;13.13;;;8.50;;
7729;SDS011;3908;52.310;7.230;2023-05-10T04:15:56;14.17;;;8.90;;
7729;SDS011;3908;52.310;7.230;2023-05-10T04:18:43;13.90;;;8.73;;
7729;SDS011;3908;52.310;7.230;2023-05-10T04:21:31;15.97;;;10.03;;
7729;SDS011;3908;52.310;7.230;2023-05-10T04:24:18;13.33;;;9.30;;
7729;SDS011;3908;52.310;7.230;2023-05-10T04:27:04;16.07;;;9.27;;
7729;SDS011;3908;52.310;7.230;2023-05-10T04:29:51;14.10;;;9.17;;
7729;SDS011;3908;52.310;7.230;2023-05-10T04:32:38;14.27;;;8.97;;
7729;SDS011;3908;52.310;7.230;2023-05-10T04:35:25;18.57;;;10.63;;
7729;SDS011;3908;52.310;7.230;2023-05-10T04:38:13;16.40;;;9.43;;
7729;SDS011;3908;52.310;7.230;2023-05-10T04:41:03;15.43;;;9.70;;
7729;SDS011;3908;52.310;7.230;2023-05-10T04:43:50;15.13;;;9.47;;
7729;SDS011;3908;52.310;7.230;2023-05-10T04:46:37;18.63;;;11.00;;
7729;SDS011;3908;52.310;7.230;2023-05-10T04:49:24;20.33;;;12.50;;
7729;SDS011;3908;52.310;7.230;2023-05-10T04:52:11;23.20;;;13.77;;
7729;SDS011;3908;52.310;7.230;2023-05-10T04:54:59;24.97;;;14.93;;
7729;SDS011;3908;52.310;7.230;2023-05-10T04:57:46;24.33;;;14.30;;
7729;SDS011;3908;52.310;7.230;2023-05-10T05:00:33;26.67;;;14.63;;
7729;SDS011;3908;52.310;7.230;2023-05-10T05:03:19;25.47;;;15.33;;
7729;SDS011;3908;52.310;7.230;2023-05-10T05:06:07;29.30;;;16.13;;
7729;SDS011;3908;52.310;7.230;2023-05-10T05:08:54;28.90;;;15.87;;
7729;SDS011;3908;52.310;7.230;2023-05-10T05:11:42;29.17;;;15.70;;
7729;SDS011;3908;52.310;7.230;2023-05-10T05:14:29;26.57;;;14.67;;
7729;SDS011;3908;52.310;7.230;2023-05-10T05:17:15;28.80;;;16.37;;
7729;SDS011;3908;52.310;7.230;2023-05-10T05:20:03;26.87;;;15.70;;
7729;SDS011;3908;52.310;7.230;2023-05-10T05:22:50;30.70;;;15.23;;
7729;SDS011;3908;52.310;7.230;2023-05-10T05:25:36;28.00;;;15.43;;
7729;SDS011;3908;52.310;7.230;2023-05-10T05:28:24;27.03;;;15.00;;
7729;SDS011;3908;52.310;7.230;2023-05-10T05:31:11;33.07;;;17.40;;
7729;SDS011;3908;52.310;7.230;2023-05-10T05:33:59;35.80;;;16.97;;
7729;SDS011;3908;52.310;7.230;2023-05-10T05:36:46;33.83;;;17.63;;
7729;SDS011;3908;52.310;7.230;2023-05-10T05:39:32;36.47;;;19.13;;
7729;SDS011;3908;52.310;7.230;2023-05-10T05:42:19;41.30;;;20.13;;
7729;SDS011;3908;52.310;7.230;2023-05-10T05:45:08;38.67;;;18.57;;
7729;SDS011;3908;52.310;7.230;2023-05-10T05:47:58;36.93;;;17.93;;
7729;SDS011;3908;52.310;7.230;2023-05-10T05:50:44;40.40;;;18.67;;
7729;SDS011;3908;52.310;7.230;2023-05-10T05:53:32;36.17;;;17.70;;
7729;SDS011;3908;52.310;7.230;2023-05-10T05:56:18;35.77;;;17.10;;
7729;SDS011;3908;52.310;7.230;2023-05-10T05:59:09;39.57;;;17.77;;
7729;SDS011;3908;52.310;7.230;2023-05-10T06:01:57;41.63;;;18.83;;
7729;SDS011;3908;52.310;7.230;2023-05-10T06:04:44;40.70;;;19.47;;
7729;SDS011;3908;52.310;7.230;2023-05-10T06:07:31;40.53;;;20.53;;
7729;SDS011;3908;52.310;7.230;2023-05-10T06:10:18;39.30;;;20.60;;
7729;SDS011;3908;52.310;7.230;2023-05-10T06:13:05;56.43;;;24.07;;
7729;SDS011;3908;52.310;7.230;2023-05-10T06:15:52;57.63;;;25.47;;
7729;SDS011;3908;52.310;7.230;2023-05-10T06:18:40;52.37;;;24.03;;
7729;SDS011;3908;52.310;7.230;2023-05-10T06:21:26;52.30;;;23.60;;
7729;SDS011;3908;52.310;7.230;2023-05-10T06:24:13;53.10;;;24.27;;
7729;SDS011;3908;52.310;7.230;2023-05-10T06:27:00;63.40;;;25.50;;
7729;SDS011;3908;52.310;7.230;2023-05-10T06:29:47;56.20;;;24.90;;
7729;SDS011;3908;52.310;7.230;2023-05-10T06:32:34;61.37;;;25.27;;
7729;SDS011;3908;52.310;7.230;2023-05-10T06:35:22;57.43;;;25.27;;
7729;SDS011;3908;52.310;7.230;2023-05-10T06:38:09;56.80;;;24.73;;
7729;SDS011;3908;52.310;7.230;2023-05-10T06:40:56;59.70;;;24.63;;
7729;SDS011;3908;52.310;7.230;2023-05-10T06:43:43;70.33;;;27.43;;
7729;SDS011;3908;52.310;7.230;2023-05-10T06:46:29;71.00;;;27.37;;
7729;SDS011;3908;52.310;7.230;2023-05-10T06:49:16;71.27;;;27.63;;
7729;SDS011;3908;52.310;7.230;2023-05-10T06:52:04;64.97;;;25.80;;
7729;SDS011;3908;52.310;7.230;2023-05-10T06:54:51;58.70;;;24.33;;
7729;SDS011;3908;52.310;7.230;2023-05-10T06:57:38;63.90;;;26.83;;
7729;SDS011;3908;52.310;7.230;2023-05-10T07:00:25;53.07;;;24.43;;
7729;SDS011;3908;52.310;7.230;2023-05-10T07:03:12;59.60;;;24.77;;
7729;SDS011;3908;52.310;7.230;2023-05-10T07:06:02;59.47;;;26.17;;
7729;SDS011;3908;52.310;7.230;2023-05-10T07:08:50;63.60;;;27.90;;
7729;SDS011;3908;52.310;7.230;2023-05-10T07:11:37;64.63;;;25.50;;
7729;SDS011;3908;52.310;7.230;2023-05-10T07:14:24;61.27;;;27.20;;
7729;SDS011;3908;52.310;7.230;2023-05-10T07:17:11;54.33;;;25.27;;
7729;SDS011;3908;52.310;7.230;2023-05-10T07:19:57;58.17;;;25.00;;
7729;SDS011;3908;52.310;7.230;2023-05-10T07:22:45;50.23;;;23.27;;
7729;SDS011;3908;52.310;7.230;2023-05-10T07:25:33;48.00;;;22.67;;
7729;SDS011;3908;52.310;7.230;2023-05-10T07:28:20;47.63;;;22.73;;
7729;SDS011;3908;52.310;7.230;2023-05-10T07:31:07;54.70;;;23.30;;
7729;SDS011;3908;52.310;7.230;2023-05-10T07:33:53;46.90;;;22.70;;
7729;SDS011;3908;52.310;7.230;2023-05-10T07:36:40;50.13;;;23.97;;
7729;SDS011;3908;52.310;7.230;2023-05-10T07:39:27;56.90;;;25.67;;
7729;SDS011;3908;52.310;7.230;2023-05-10T07:42:15;48.23;;;24.20;;
7729;SDS011;3908;52.310;7.230;2023-05-10T07:45:02;46.17;;;21.90;;
7729;SDS011;3908;52.310;7.230;2023-05-10T07:47:49;46.97;;;23.27;;
7729;SDS011;3908;52.310;7.230;2023-05-10T07:50:36;43.77;;;21.57;;
7729;SDS011;3908;52.310;7.230;2023-05-10T07:53:22;46.87;;;21.83;;
7729;SDS011;3908;52.310;7.230;2023-05-10T07:56:19;46.87;;;21.00;;
7729;SDS011;3908;52.310;7.230;2023-05-10T07:59:08;43.20;;;21.03;;
7729;SDS011;3908;52.310;7.230;2023-05-10T08:01:55;42.37;;;21.40;;
7729;SDS011;3908;52.310;7.230;2023-05-10T08:04:41;45.80;;;22.37;;
7729;SDS011;3908;52.310;7.230;2023-05-10T08:07:28;45.30;;;22.87;;
7729;SDS011;3908;52.310;7.230;2023-05-10T08:10:15;46.67;;;22.80;;
7729;SDS011;3908;52.310;7.230;2023-05-10T08:13:02;49.23;;;22.37;;
7729;SDS011;3908;52.310;7.230;2023-05-10T08:15:50;44.90;;;22.63;;
7729;SDS011;3908;52.310;7.230;2023-05-10T08:18:38;45.30;;;22.47;;
7729;SDS011;3908;52.310;7.230;2023-05-10T08:21:25;42.23;;;22.17;;
7729;SDS011;3908;52.310;7.230;2023-05-10T08:24:12;42.03;;;20.43;;
7729;SDS011;3908;52.310;7.230;2023-05-10T08:26:59;39.37;;;21.20;;
7729;SDS011;3908;52.310;7.230;2023-05-10T08:29:46;34.77;;;18.53;;
7729;SDS011;3908;52.310;7.230;2023-05-10T08:32:34;35.23;;;18.33;;
7729;SDS011;3908;52.310;7.230;2023-05-10T08:35:23;36.93;;;18.73;;
7729;SDS011;3908;52.310;7.230;2023-05-10T08:38:10;36.47;;;18.27;;
7729;SDS011;3908;52.310;7.230;2023-05-10T08:40:58;34.23;;;17.50;;
7729;SDS011;3908;52.310;7.230;2023-05-10T08:43:46;38.10;;;20.13;;
7729;SDS011;3908;52.310;7.230;2023-05-10T08:46:33;36.67;;;19.57;;
7729;SDS011;3908;52.310;7.230;2023-05-10T08:49:22;36.23;;;18.50;;
7729;SDS011;3908;52.310;7.230;2023-05-10T08:52:09;32.60;;;17.67;;
7729;SDS011;3908;52.310;7.230;2023-05-10T08:54:57;35.23;;;17.17;;
7729;SDS011;3908;52.310;7.230;2023-05-10T08:57:44;32.33;;;17.83;;
7729;SDS011;3908;52.310;7.230;2023-05-10T09:00:31;35.83;;;18.97;;
7729;SDS011;3908;52.310;7.230;2023-05-10T09:03:18;37.93;;;18.50;;
7729;SDS011;3908;52.310;7.230;2023-05-10T09:06:07;35.13;;;17.63;;
7729;SDS011;3908;52.310;7.230;2023-05-10T09:08:54;34.87;;;18.50;;
7729;SDS011;3908;52.310;7.230;2023-05-10T09:11:41;36.40;;;18.93;;
7729;SDS011;3908;52.310;7.230;2023-05-10T09:14:28;39.40;;;19.33;;
7729;SDS011;3908;52.310;7.230;2023-05-10T09:17:15;33.73;;;17.10;;
7729;SDS011;3908;52.310;7.230;2023-05-10T09:20:02;39.63;;;19.70;;
7729;SDS011;3908;52.310;7.230;2023-05-10T09:22:51;34.93;;;16.67;;
7729;SDS011;3908;52.310;7.230;2023-05-10T09:25:38;34.73;;;17.90;;
7729;SDS011;3908;52.310;7.230;2023-05-10T09:28:25;33.97;;;16.77;;
7729;SDS011;3908;52.310;7.230;2023-05-10T09:31:12;32.13;;;17.23;;
7729;SDS011;3908;52.310;7.230;2023-05-10T09:33:59;35.47;;;14.90;;
7729;SDS011;3908;52.310;7.230;2023-05-10T09:36:52;35.33;;;16.60;;
7729;SDS011;3908;52.310;7.230;2023-05-10T09:39:40;30.63;;;15.80;;
7729;SDS011;3908;52.310;7.230;2023-05-10T09:42:27;32.37;;;16.47;;
7729;SDS011;3908;52.310;7.230;2023-05-10T09:45:14;34.73;;;16.63;;
7729;SDS011;3908;52.310;7.230;2023-05-10T09:48:01;29.80;;;14.50;;
7729;SDS011;3908;52.310;7.230;2023-05-10T09:50:55;35.77;;;15.50;;
7729;SDS011;3908;52.310;7.230;2023-05-10T09:53:42;33.90;;;17.43;;
7729;SDS011;3908;52.310;7.230;2023-05-10T09:56:34;29.07;;;15.00;;
7729;SDS011;3908;52.310;7.230;2023-05-10T09:59:21;32.37;;;15.23;;
7729;SDS011;3908;52.310;7.230;2023-05-10T10:02:08;30.97;;;15.00;;
7729;SDS011;3908;52.310;7.230;2023-05-10T10:04:54;28.37;;;13.90;;
7729;SDS011;3908;52.310;7.230;2023-05-10T10:07:41;27.73;;;13.70;;
7729;SDS011;3908;52.310;7.230;2023-05-10T10:10:28;32.30;;;14.87;;
7729;SDS011;3908;52.310;7.230;2023-05-10T10:13:16;30.43;;;14.20;;
7729;SDS011;3908;52.310;7.230;2023-05-10T10:16:03;30.60;;;14.77;;
7729;SDS011;3908;52.310;7.230;2023-05-10T10:18:50;26.83;;;13.20;;
7729;SDS011;3908;52.310;7.230;2023-05-10T10:21:37;28.63;;;12.93;;
7729;SDS011;3908;52.310;7.230;2023-05-10T10:24:24;27.70;;;13.40;;
7729;SDS011;3908;52.310;7.230;2023-05-10T10:27:15;26.67;;;13.63;;
7729;SDS011;3908;52.310;7.230;2023-05-10T10:30:10;24.87;;;12.17;;
7729;SDS011;3908;52.310;7.230;2023-05-10T10:33:05;28.50;;;13.57;;
7729;SDS011;3908;52.310;7.230;2023-05-10T10:35:53;26.87;;;12.43;;
7729;SDS011;3908;52.310;7.230;2023-05-10T10:38:57;26.63;;;12.73;;
7729;SDS011;3908;52.310;7.230;2023-05-10T10:41:49;31.20;;;13.57;;
7729;SDS011;3908;52.310;7.230;2023-05-10T10:44:36;28.70;;;13.30;;
7729;SDS011;3908;52.310;7.230;2023-05-10T10:47:27;32.07;;;14.10;;
7729;SDS011;3908;52.310;7.230;2023-05-10T10:50:18;26.77;;;13.93;;
7729;SDS011;3908;52.310;7.230;2023-05-10T10:53:10;29.07;;;15.03;;
7729;SDS011;3908;52.310;7.230;2023-05-10T10:56:06;27.33;;;14.07;;
7729;SDS011;3908;52.310;7.230;2023-05-10T10:58:56;28.63;;;14.33;;
7729;SDS011;3908;52.310;7.230;2023-05-10T11:01:47;34.43;;;15.03;;
7729;SDS011;3908;52.310;7.230;2023-05-10T11:04:42;25.63;;;12.87;;
7729;SDS011;3908;52.310;7.230;2023-05-10T11:07:31;27.20;;;13.10;;
7729;SDS011;3908;52.310;7.230;2023-05-10T11:10:19;25.10;;;12.20;;
7729;SDS011;3908;52.310;7.230;2023-05-10T11:13:06;27.37;;;12.03;;
7729;SDS011;3908;52.310;7.230;2023-05-10T11:15:53;24.50;;;11.57;;
7729;SDS011;3908;52.310;7.230;2023-05-10T11:18:40;19.80;;;11.37;;
7729;SDS011;3908;52.310;7.230;2023-05-10T11:21:28;21.20;;;11.60;;
7729;SDS011;3908;52.310;7.230;2023-05-10T11:24:16;23.30;;;11.23;;
7729;SDS011;3908;52.310;7.230;2023-05-10T11:27:02;24.93;;;11.70;;
7729;SDS011;3908;52.310;7.230;2023-05-10T11:29:50;21.77;;;11.37;;
7729;SDS011;3908;52.310;7.230;2023-05-10T11:32:37;17.27;;;10.50;;
7729;SDS011;3908;52.310;7.230;2023-05-10T11:35:27;23.70;;;11.70;;
7729;SDS011;3908;52.310;7.230;2023-05-10T11:38:15;21.35;;;10.25;;
7729;SDS011;3908;52.310;7.230;2023-05-10T11:41:02;20.92;;;9.93;;
7729;SDS011;3908;52.310;7.230;2023-05-10T11:43:49;18.40;;;9.98;;
7729;SDS011;3908;52.310;7.230;2023-05-10T11:46:36;21.75;;;9.95;;
7729;SDS011;3908;52.310;7.230;2023-05-10T11:49:23;15.32;;;8.25;;
7729;SDS011;3908;52.310;7.230;2023-05-10T11:52:11;13.27;;;8.32;;
7729;SDS011;3908;52.310;7.230;2023-05-10T11:54:59;16.13;;;8.85;;
7729;SDS011;3908;52.310;7.230;2023-05-10T11:57:46;16.13;;;8.85;;
7729;SDS011;3908;52.310;7.230;2023-05-10T12:00:33;18.73;;;9.10;;
7729;SDS011;3908;52.310;7.230;2023-05-10T12:03:20;16.90;;;8.57;;
7729;SDS011;3908;52.310;7.230;2023-05-10T12:06:07;19.47;;;9.20;;
7729;SDS011;3908;52.310;7.230;2023-05-10T12:08:54;13.48;;;9.13;;
7729;SDS011;3908;52.310;7.230;2023-05-10T12:11:42;15.35;;;8.40;;
7729;SDS011;3908;52.310;7.230;2023-05-10T12:14:29;12.77;;;7.60;;
7729;SDS011;3908;52.310;7.230;2023-05-10T12:17:18;16.40;;;7.20;;
7729;SDS011;3908;52.310;7.230;2023-05-10T12:20:15;11.00;;;7.18;;
7729;SDS011;3908;52.310;7.230;2023-05-10T12:23:02;11.32;;;6.72;;
7729;SDS011;3908;52.310;7.230;2023-05-10T12:25:49;11.45;;;7.65;;
7729;SDS011;3908;52.310;7.230;2023-05-10T12:28:38;12.70;;;7.85;;
7729;SDS011;3908;52.310;7.230;2023-05-10T12:31:25;11.57;;;7.30;;
7729;SDS011;3908;52.310;7.230;2023-05-10T12:34:11;11.07;;;7.60;;
7729;SDS011;3908;52.310;7.230;2023-05-10T12:37:08;14.33;;;7.63;;
7729;SDS011;3908;52.310;7.230;2023-05-10T12:39:55;12.27;;;7.67;;
7729;SDS011;3908;52.310;7.230;2023-05-10T12:42:42;15.77;;;7.87;;
7729;SDS011;3908;52.310;7.230;2023-05-10T12:45:31;16.23;;;8.03;;
7729;SDS011;3908;52.310;7.230;2023-05-10T12:48:18;16.33;;;8.07;;
7729;SDS011;3908;52.310;7.230;2023-05-10T12:51:05;14.53;;;8.33;;
7729;SDS011;3908;52.310;7.230;2023-05-10T12:53:54;13.80;;;8.00;;
7729;SDS011;3908;52.310;7.230;2023-05-10T12:56:41;13.30;;;7.65;;
7729;SDS011;3908;52.310;7.230;2023-05-10T12:59:28;10.43;;;7.07;;
7729;SDS011;3908;52.310;7.230;2023-05-10T13:02:16;15.70;;;8.30;;
7729;SDS011;3908;52.310;7.230;2023-05-10T13:05:04;12.87;;;7.13;;
7729;SDS011;3908;52.310;7.230;2023-05-10T13:07:51;11.33;;;7.13;;
7729;SDS011;3908;52.310;7.230;2023-05-10T13:10:37;9.93;;;6.33;;
7729;SDS011;3908;52.310;7.230;2023-05-10T13:13:25;8.97;;;5.97;;
7729;SDS011;3908;52.310;7.230;2023-05-10T13:16:12;9.27;;;5.40;;
7729;SDS011;3908;52.310;7.230;2023-05-10T13:19:00;8.73;;;5.83;;
7729;SDS011;3908;52.310;7.230;2023-05-10T13:21:48;8.00;;;5.77;;
7729;SDS011;3908;52.310;7.230;2023-05-10T13:24:35;8.57;;;5.47;;
7729;SDS011;3908;52.310;7.230;2023-05-10T13:27:21;10.65;;;5.88;;
7729;SDS011;3908;52.310;7.230;2023-05-10T13:30:08;8.47;;;5.20;;
7729;SDS011;3908;52.310;7.230;2023-05-10T13:32:56;8.57;;;5.00;;
7729;SDS011;3908;52.310;7.230;2023-05-10T13:35:44;10.82;;;6.38;;
7729;SDS011;3908;52.310;7.230;2023-05-10T13:38:31;10.47;;;6.80;;
7729;SDS011;3908;52.310;7.230;2023-05-10T13:41:18;11.32;;;6.63;;
7729;SDS011;3908;52.310;7.230;2023-05-10T13:44:05;11.77;;;5.85;;
7729;SDS011;3908;52.310;7.230;2023-05-10T13:46:51;10.60;;;6.20;;
7729;SDS011;3908;52.310;7.230;2023-05-10T13:49:38;8.13;;;5.60;;
7729;SDS011;3908;52.310;7.230;2023-05-10T13:52:26;9.90;;;6.50;;
7729;SDS011;3908;52.310;7.230;2023-05-10T13:55:13;10.70;;;6.80;;
7729;SDS011;3908;52.310;7.230;2023-05-10T13:58:00;13.10;;;6.80;;
7729;SDS011;3908;52.310;7.230;2023-05-10T14:00:47;11.23;;;6.87;;
7729;SDS011;3908;52.310;7.230;2023-05-10T14:03:33;12.80;;;6.33;;
7729;SDS011;3908;52.310;7.230;2023-05-10T14:06:20;8.73;;;5.80;;
7729;SDS011;3908;52.310;7.230;2023-05-10T14:09:08;8.68;;;5.10;;
7729;SDS011;3908;52.310;7.230;2023-05-10T14:11:55;7.78;;;5.10;;
7729;SDS011;3908;52.310;7.230;2023-05-10T14:14:42;8.07;;;4.87;;
7729;SDS011;3908;52.310;7.230;2023-05-10T14:17:29;7.47;;;4.35;;
7729;SDS011;3908;52.310;7.230;2023-05-10T14:20:16;7.72;;;4.85;;
7729;SDS011;3908;52.310;7.230;2023-05-10T14:23:02;7.45;;;4.18;;
7729;SDS011;3908;52.310;7.230;2023-05-10T14:25:51;5.57;;;3.65;;
7729;SDS011;3908;52.310;7.230;2023-05-10T14:28:37;8.00;;;4.20;;
7729;SDS011;3908;52.310;7.230;2023-05-10T14:31:24;6.32;;;4.10;;
7729;SDS011;3908;52.310;7.230;2023-05-10T14:34:11;6.82;;;4.32;;
7729;SDS011;3908;52.310;7.230;2023-05-10T14:36:57;6.55;;;4.30;;
7729;SDS011;3908;52.310;7.230;2023-05-10T14:39:44;6.70;;;4.35;;
7729;SDS011;3908;52.310;7.230;2023-05-10T14:42:32;6.90;;;4.47;;
7729;SDS011;3908;52.310;7.230;2023-05-10T14:45:19;7.20;;;4.40;;
7729;SDS011;3908;52.310;7.230;2023-05-10T14:48:06;6.85;;;4.75;;
7729;SDS011;3908;52.310;7.230;2023-05-10T14:50:56;6.63;;;4.25;;
7729;SDS011;3908;52.310;7.230;2023-05-10T14:53:43;4.93;;;3.30;;
7729;SDS011;3908;52.310;7.230;2023-05-10T14:56:30;8.10;;;4.40;;
7729;SDS011;3908;52.310;7.230;2023-05-10T14:59:18;6.10;;;4.50;;
7729;SDS011;3908;52.310;7.230;2023-05-10T15:02:05;7.10;;;4.43;;
7729;SDS011;3908;52.310;7.230;2023-05-10T15:04:53;6.93;;;4.77;;
7729;SDS011;3908;52.310;7.230;2023-05-10T15:07:40;10.80;;;4.77;;
7729;SDS011;3908;52.310;7.230;2023-05-10T15:10:29;5.77;;;4.33;;
7729;SDS011;3908;52.310;7.230;2023-05-10T15:13:16;7.53;;;4.80;;
7729;SDS011;3908;52.310;7.230;2023-05-10T15:16:04;6.00;;;4.27;;
7729;SDS011;3908;52.310;7.230;2023-05-10T15:18:51;6.60;;;4.30;;
7729;SDS011;3908;52.310;7.230;2023-05-10T15:21:37;6.63;;;3.90;;
7729;SDS011;3908;52.310;7.230;2023-05-10T15:24:27;6.87;;;4.43;;
7729;SDS011;3908;52.310;7.230;2023-05-10T15:27:14;5.47;;;3.47;;
7729;SDS011;3908;52.310;7.230;2023-05-10T15:30:04;7.17;;;4.03;;
7729;SDS011;3908;52.310;7.230;2023-05-10T15:32:52;5.83;;;4.07;;
7729;SDS011;3908;52.310;7.230;2023-05-10T15:35:39;6.53;;;4.77;;
7729;SDS011;3908;52.310;7.230;2023-05-10T15:38:26;5.63;;;3.80;;
7729;SDS011;3908;52.310;7.230;2023-05-10T15:41:13;7.13;;;4.10;;
7729;SDS011;3908;52.310;7.230;2023-05-10T15:43:59;4.97;;;3.97;;
7729;SDS011;3908;52.310;7.230;2023-05-10T15:46:46;7.27;;;4.20;;
7729;SDS011;3908;52.310;7.230;2023-05-10T15:49:34;7.03;;;4.30;;
7729;SDS011;3908;52.310;7.230;2023-05-10T15:52:21;6.73;;;3.80;;
7729;SDS011;3908;52.310;7.230;2023-05-10T15:55:08;6.60;;;3.97;;
7729;SDS011;3908;52.310;7.230;2023-05-10T15:57:57;6.53;;;4.40;;
7729;SDS011;3908;52.310;7.230;2023-05-10T16:00:43;7.20;;;4.43;;
7729;SDS011;3908;52.310;7.230;2023-05-10T16:03:30;7.27;;;3.97;;
7729;SDS011;3908;52.310;7.230;2023-05-10T16:06:18;8.30;;;4.50;;
7729;SDS011;3908;52.310;7.230;2023-05-10T16:09:05;8.67;;;4.80;;
7729;SDS011;3908;52.310;7.230;2023-05-10T16:11:52;7.63;;;4.90;;
7729;SDS011;3908;52.310;7.230;2023-05-10T16:14:39;6.83;;;4.40;;
7729;SDS011;3908;52.310;7.230;2023-05-10T16:17:26;7.60;;;5.00;;
7729;SDS011;3908;52.310;7.230;2023-05-10T16:20:13;9.53;;;5.20;;
7729;SDS011;3908;52.310;7.230;2023-05-10T16:23:02;11.47;;;6.03;;
7729;SDS011;3908;52.310;7.230;2023-05-10T16:25:49;10.07;;;5.00;;
7729;SDS011;3908;52.310;7.230;2023-05-10T16:28:35;9.17;;;5.53;;
7729;SDS011;3908;52.310;7.230;2023-05-10T16:31:23;11.57;;;5.60;;
7729;SDS011;3908;52.310;7.230;2023-05-10T16:34:10;7.53;;;5.00;;
7729;SDS011;3908;52.310;7.230;2023-05-10T16:36:57;7.87;;;5.97;;
7729;SDS011;3908;52.310;7.230;2023-05-10T16:39:47;9.03;;;5.50;;
7729;SDS011;3908;52.310;7.230;2023-05-10T16:42:34;8.60;;;5.30;;
7729;SDS011;3908;52.310;7.230;2023-05-10T16:45:21;8.97;;;5.20;;
7729;SDS011;3908;52.310;7.230;2023-05-10T16:48:08;7.37;;;4.73;;
7729;SDS011;3908;52.310;7.230;2023-05-10T16:50:55;8.00;;;4.80;;
7729;SDS011;3908;52.310;7.230;2023-05-10T16:53:42;6.70;;;4.70;;
7729;SDS011;3908;52.310;7.230;2023-05-10T16:56:30;7.07;;;5.00;;
7729;SDS011;3908;52.310;7.230;2023-05-10T16:59:16;6.40;;;4.30;;
7729;SDS011;3908;52.310;7.230;2023-05-10T17:02:03;7.13;;;5.03;;
7729;SDS011;3908;52.310;7.230;2023-05-10T17:04:50;8.37;;;4.87;;
7729;SDS011;3908;52.310;7.230;2023-05-10T17:07:39;8.70;;;5.30;;